createdAt,value
2023-04-29T00:01:34.912Z,13.85
2023-04-29T00:04:04.910Z,13.15
2023-04-29T00:06:34.445Z,13.82
2023-04-29T00:09:04.800Z,13.65
2023-04-29T00:11:33.542Z,12.95
2023-04-29T00:14:02.753Z,12.95
2023-04-29T00:16:33.081Z,13.77
2023-04-29T00:21:48.426Z,13.98
2023-04-29T00:24:16.923Z,13.30
2023-04-29T00:26:48.595Z,13.38
2023-04-29T00:29:19.461Z,13.50
2023-04-29T00:31:51.654Z,13.68
2023-04-29T00:34:21.862Z,13.25
2023-04-29T00:36:50.896Z,14.18
2023-04-29T00:39:23.405Z,14.75
2023-04-29T00:42:05.299Z,13.80
2023-04-29T00:44:36.347Z,13.90
2023-04-29T00:47:08.945Z,13.07
2023-04-29T00:52:15.351Z,13.85
2023-04-29T00:57:15.381Z,13.20
2023-04-29T00:59:49.163Z,14.27
2023-04-29T01:02:20.994Z,14.05
2023-04-29T01:04:57.646Z,13.57
2023-04-29T01:07:59.375Z,13.40
2023-04-29T01:10:36.072Z,13.25
2023-04-29T01:13:12.076Z,14.90
2023-04-29T01:16:32.298Z,13.90
2023-04-29T01:19:18.134Z,13.90
2023-04-29T01:21:49.397Z,14.18
2023-04-29T01:24:18.586Z,14.23
2023-04-29T01:27:02.939Z,13.40
2023-04-29T01:30:05.999Z,14.10
2023-04-29T01:32:58.344Z,14.60
2023-04-29T01:35:53.127Z,13.90
2023-04-29T01:38:43.696Z,14.20
2023-04-29T01:41:18.486Z,14.27
2023-04-29T01:43:53.053Z,14.23
2023-04-29T01:46:28.159Z,13.77
2023-04-29T01:48:59.331Z,14.07
2023-04-29T01:51:28.816Z,14.55
2023-04-29T01:53:59.581Z,14.35
2023-04-29T01:56:28.734Z,15.23
2023-04-29T01:59:26.999Z,16.08
2023-04-29T02:01:59.037Z,14.88
2023-04-29T02:04:29.091Z,14.63
2023-04-29T02:07:01.853Z,14.95
2023-04-29T02:09:32.460Z,14.93
2023-04-29T02:12:08.960Z,15.10
2023-04-29T02:14:37.917Z,15.00
2023-04-29T02:17:08.045Z,14.30
2023-04-29T02:19:40.500Z,14.88
2023-04-29T02:22:09.587Z,14.38
2023-04-29T02:24:39.158Z,14.38
2023-04-29T02:27:10.362Z,15.93
2023-04-29T02:29:38.717Z,14.90
2023-04-29T02:32:07.755Z,14.98
2023-04-29T02:34:36.169Z,16.52
2023-04-29T02:37:05.012Z,16.45
2023-04-29T02:39:33.243Z,15.77
2023-04-29T02:42:02.422Z,15.55
2023-04-29T02:44:31.633Z,15.13
2023-04-29T02:47:01.376Z,15.13
2023-04-29T02:49:30.485Z,15.60
2023-04-29T02:51:59.289Z,15.57
2023-04-29T02:54:27.607Z,15.85
2023-04-29T02:56:56.310Z,15.35
2023-04-29T02:59:24.632Z,16.08
2023-04-29T03:01:57.015Z,15.57
2023-04-29T03:06:58.400Z,15.88
2023-04-29T03:09:28.926Z,15.63
2023-04-29T03:11:57.764Z,16.02
2023-04-29T03:14:26.162Z,16.33
2023-04-29T03:16:56.678Z,16.73
2023-04-29T03:19:43.836Z,16.08
2023-04-29T03:22:12.685Z,14.90
2023-04-29T03:24:46.151Z,15.45
2023-04-29T03:27:15.165Z,15.48
2023-04-29T03:29:43.485Z,16.05
2023-04-29T03:32:13.252Z,16.50
2023-04-29T03:34:41.619Z,16.00
2023-04-29T03:37:30.487Z,16.60
2023-04-29T03:40:19.206Z,15.75
2023-04-29T03:42:48.097Z,15.95
2023-04-29T03:45:16.847Z,16.38
2023-04-29T03:47:46.473Z,15.88
2023-04-29T03:50:14.775Z,15.32
2023-04-29T03:52:43.871Z,16.08
2023-04-29T03:55:16.925Z,15.95
2023-04-29T03:57:46.823Z,16.25
2023-04-29T04:00:17.699Z,15.70
2023-04-29T04:02:48.882Z,16.33
2023-04-29T04:05:19.719Z,16.58
2023-04-29T04:07:55.358Z,16.00
2023-04-29T04:10:35.568Z,15.77
2023-04-29T04:13:09.007Z,16.08
2023-04-29T04:15:38.863Z,14.70
2023-04-29T04:18:08.345Z,15.80
2023-04-29T04:20:37.528Z,17.15
2023-04-29T04:23:07.149Z,15.88
2023-04-29T04:25:35.616Z,16.48
2023-04-29T04:28:26.988Z,16.27
2023-04-29T04:31:02.617Z,16.00
2023-04-29T04:33:31.537Z,16.15
2023-04-29T04:36:00.399Z,16.48
2023-04-29T04:38:29.144Z,17.17
2023-04-29T04:40:57.978Z,16.23
2023-04-29T04:43:34.836Z,16.42
2023-04-29T04:46:14.537Z,16.90
2023-04-29T04:48:53.602Z,15.88
2023-04-29T04:51:22.035Z,16.70
2023-04-29T04:53:50.761Z,18.80
2023-04-29T04:56:24.457Z,16.58
2023-04-29T04:58:53.356Z,17.20
2023-04-29T05:01:22.697Z,16.85
2023-04-29T05:03:51.487Z,16.48
2023-04-29T05:06:20.107Z,17.35
2023-04-29T05:08:49.862Z,17.58
2023-04-29T05:11:20.000Z,16.83
2023-04-29T05:14:01.967Z,17.77
2023-04-29T05:16:30.975Z,18.25
2023-04-29T05:19:00.159Z,17.77
2023-04-29T05:21:32.812Z,17.45
2023-04-29T05:24:02.726Z,15.73
2023-04-29T05:26:31.228Z,17.23
2023-04-29T05:29:02.553Z,15.23
2023-04-29T05:31:37.665Z,15.98
2023-04-29T05:34:06.497Z,15.75
2023-04-29T05:36:34.857Z,16.42
2023-04-29T05:39:04.194Z,16.33
2023-04-29T05:41:32.558Z,17.85
2023-04-29T05:44:21.853Z,18.63
2023-04-29T05:46:51.803Z,17.35
2023-04-29T05:49:21.084Z,15.93
2023-04-29T05:51:49.918Z,17.55
2023-04-29T05:54:18.646Z,15.90
2023-04-29T05:56:48.000Z,16.15
2023-04-29T05:59:16.520Z,15.95
2023-04-29T06:01:51.601Z,15.98
2023-04-29T06:04:21.008Z,16.52
2023-04-29T06:07:16.108Z,17.33
2023-04-29T06:10:07.060Z,16.90
2023-04-29T06:12:35.869Z,18.52
2023-04-29T06:15:05.185Z,16.13
2023-04-29T06:17:33.724Z,16.02
2023-04-29T06:20:02.322Z,16.77
2023-04-29T06:22:30.928Z,15.30
2023-04-29T06:25:01.212Z,15.35
2023-04-29T06:27:42.658Z,16.08
2023-04-29T06:30:12.324Z,15.88
2023-04-29T06:32:41.610Z,17.25
2023-04-29T06:35:10.783Z,14.90
2023-04-29T06:37:57.538Z,13.07
2023-04-29T06:40:49.345Z,13.57
2023-04-29T06:43:52.318Z,13.55
2023-04-29T06:46:40.044Z,13.73
2023-04-29T06:49:11.938Z,12.65
2023-04-29T06:51:50.200Z,13.50
2023-04-29T06:54:18.999Z,12.70
2023-04-29T06:56:48.355Z,12.60
2023-04-29T06:59:19.304Z,14.52
2023-04-29T07:01:49.759Z,13.60
2023-04-29T07:04:21.176Z,12.82
2023-04-29T07:06:50.208Z,13.93
2023-04-29T07:09:18.815Z,12.57
2023-04-29T07:11:47.389Z,12.80
2023-04-29T07:14:16.237Z,14.85
2023-04-29T07:16:45.161Z,13.05
2023-04-29T07:19:13.372Z,13.07
2023-04-29T07:21:42.274Z,13.88
2023-04-29T07:24:10.689Z,12.75
2023-04-29T07:26:39.592Z,13.13
2023-04-29T07:36:02.709Z,13.18
2023-04-29T07:38:35.112Z,13.70
2023-04-29T07:44:22.798Z,13.77
2023-04-29T07:46:56.148Z,15.57
2023-04-29T07:49:26.499Z,14.38
2023-04-29T07:51:54.907Z,13.27
2023-04-29T07:54:23.825Z,12.98
2023-04-29T07:56:52.435Z,14.10
2023-04-29T07:59:22.101Z,13.55
2023-04-29T08:01:52.298Z,13.00
2023-04-29T08:04:25.150Z,12.55
2023-04-29T08:07:09.908Z,13.15
2023-04-29T08:09:38.819Z,13.32
2023-04-29T08:12:08.358Z,14.85
2023-04-29T08:14:37.574Z,13.52
2023-04-29T08:17:09.217Z,13.73
2023-04-29T08:19:37.738Z,14.85
2023-04-29T08:22:06.079Z,13.63
2023-04-29T08:24:35.390Z,13.93
2023-04-29T08:27:04.628Z,15.23
2023-04-29T08:29:33.366Z,15.63
2023-04-29T08:32:01.825Z,14.93
2023-04-29T08:34:32.182Z,13.98
2023-04-29T08:37:00.565Z,13.23
2023-04-29T08:40:37.709Z,12.70
2023-04-29T08:43:06.950Z,12.80
2023-04-29T08:45:39.937Z,12.98
2023-04-29T08:48:13.937Z,13.65
2023-04-29T08:50:48.053Z,14.82
2023-04-29T08:53:16.828Z,26.00
2023-04-29T08:55:54.604Z,29.60
2023-04-29T08:58:34.820Z,17.05
2023-04-29T09:01:03.564Z,16.27
2023-04-29T09:03:43.159Z,16.65
2023-04-29T09:06:14.663Z,27.58
2023-04-29T09:08:43.424Z,17.85
2023-04-29T09:11:13.256Z,16.70
2023-04-29T09:13:42.268Z,16.95
2023-04-29T09:16:14.020Z,18.17
2023-04-29T09:18:44.257Z,17.95
2023-04-29T09:21:27.317Z,19.20
2023-04-29T09:23:58.206Z,17.95
2023-04-29T09:26:27.548Z,20.02
2023-04-29T09:29:11.867Z,19.45
2023-04-29T09:31:41.266Z,21.55
2023-04-29T09:34:12.060Z,17.20
2023-04-29T09:36:49.443Z,17.10
2023-04-29T09:39:20.736Z,17.13
2023-04-29T09:41:55.508Z,18.52
2023-04-29T09:44:29.568Z,17.38
2023-04-29T09:47:03.195Z,18.33
2023-04-29T09:49:44.208Z,18.50
2023-04-29T09:52:21.001Z,19.85
2023-04-29T09:54:58.846Z,21.27
2023-04-29T09:57:44.839Z,22.02
2023-04-29T10:00:17.888Z,22.52
2023-04-29T10:02:48.531Z,23.95
2023-04-29T10:05:17.998Z,22.63
2023-04-29T10:07:50.354Z,18.25
2023-04-29T10:10:21.916Z,18.23
2023-04-29T10:12:53.804Z,18.30
2023-04-29T10:15:44.101Z,20.55
2023-04-29T10:18:22.263Z,20.85
2023-04-29T10:20:51.302Z,17.17
2023-04-29T10:23:22.608Z,18.60
2023-04-29T10:25:56.289Z,18.05
2023-04-29T10:28:25.925Z,17.17
2023-04-29T10:30:54.822Z,17.33
2023-04-29T10:33:26.730Z,18.30
2023-04-29T10:35:56.690Z,16.85
2023-04-29T10:38:35.762Z,16.95
2023-04-29T10:41:14.720Z,17.45
2023-04-29T10:43:43.151Z,17.30
2023-04-29T10:46:17.770Z,16.20
2023-04-29T10:48:47.378Z,15.50
2023-04-29T10:51:34.207Z,15.98
2023-04-29T10:54:08.637Z,14.73
2023-04-29T10:56:54.443Z,15.52
2023-04-29T10:59:29.288Z,16.95
2023-04-29T11:01:59.696Z,14.63
2023-04-29T11:04:28.337Z,14.77
2023-04-29T11:06:59.460Z,14.73
2023-04-29T11:09:30.673Z,15.02
2023-04-29T11:12:05.594Z,14.18
2023-04-29T11:14:51.175Z,17.17
2023-04-29T11:17:24.923Z,15.10
2023-04-29T11:19:56.379Z,15.67
2023-04-29T11:22:33.099Z,14.77
2023-04-29T11:25:05.596Z,14.98
2023-04-29T11:27:36.120Z,15.57
2023-04-29T11:30:07.050Z,16.70
2023-04-29T11:32:46.004Z,15.07
2023-04-29T11:35:16.459Z,14.70
2023-04-29T11:37:47.135Z,15.80
2023-04-29T11:40:17.130Z,14.88
2023-04-29T11:42:47.508Z,15.07
2023-04-29T11:45:19.873Z,15.10
2023-04-29T11:47:49.085Z,15.20
2023-04-29T11:50:20.501Z,15.07
2023-04-29T11:52:50.127Z,16.25
2023-04-29T11:55:19.910Z,15.52
2023-04-29T11:57:51.481Z,16.20
2023-04-29T12:00:20.444Z,14.77
2023-04-29T12:02:49.224Z,17.90
2023-04-29T12:05:19.885Z,15.55
2023-04-29T12:07:50.416Z,16.45
2023-04-29T12:10:19.402Z,16.42
2023-04-29T12:12:48.547Z,16.52
2023-04-29T12:15:17.454Z,14.60
2023-04-29T12:17:46.704Z,15.52
2023-04-29T12:20:15.938Z,15.82
2023-04-29T12:22:44.417Z,15.93
2023-04-29T12:25:13.694Z,15.57
2023-04-29T12:27:43.266Z,15.90
2023-04-29T12:30:12.776Z,17.95
2023-04-29T12:32:42.198Z,17.70
2023-04-29T12:35:18.323Z,18.20
2023-04-29T12:37:51.040Z,15.25
2023-04-29T12:40:21.243Z,15.15
2023-04-29T12:42:49.719Z,14.40
2023-04-29T12:45:32.857Z,14.77
2023-04-29T12:48:03.320Z,14.73
2023-04-29T12:50:36.549Z,14.35
2023-04-29T12:53:07.629Z,13.30
2023-04-29T12:55:38.301Z,11.40
2023-04-29T12:58:07.584Z,10.70
2023-04-29T13:00:38.046Z,10.70
2023-04-29T13:03:07.445Z,10.05
2023-04-29T13:05:36.389Z,9.98
2023-04-29T13:08:08.484Z,9.32
2023-04-29T13:10:37.201Z,9.65
2023-04-29T13:13:05.709Z,11.50
2023-04-29T13:15:34.634Z,9.70
2023-04-29T13:18:03.109Z,9.77
2023-04-29T13:20:33.393Z,10.18
2023-04-29T13:23:01.615Z,9.85
2023-04-29T13:25:30.214Z,8.52
2023-04-29T13:27:59.009Z,9.55
2023-04-29T13:30:27.565Z,8.95
2023-04-29T13:32:59.910Z,8.82
2023-04-29T13:35:38.453Z,8.73
2023-04-29T13:40:58.010Z,9.23
2023-04-29T13:43:36.818Z,9.63
2023-04-29T13:46:08.365Z,11.23
2023-04-29T13:49:14.236Z,9.60
2023-04-29T13:52:09.848Z,9.68
2023-04-29T14:04:22.142Z,9.23
2023-04-29T14:06:50.935Z,9.60
2023-04-29T14:09:20.183Z,10.32
2023-04-29T14:11:50.158Z,9.13
2023-04-29T14:14:18.532Z,9.95
2023-04-29T14:16:47.756Z,10.45
2023-04-29T14:19:16.103Z,11.88
2023-04-29T14:21:45.035Z,9.52
2023-04-29T14:24:13.454Z,9.68
2023-04-29T14:26:42.152Z,9.48
2023-04-29T14:29:10.396Z,15.55
2023-04-29T14:31:38.931Z,12.90
2023-04-29T14:34:07.369Z,9.65
2023-04-29T14:36:36.490Z,10.38
2023-04-29T14:39:05.514Z,10.38
2023-04-29T14:41:34.187Z,9.88
2023-04-29T14:44:02.603Z,11.02
2023-04-29T14:46:34.300Z,15.32
2023-04-29T14:49:03.678Z,9.52
2023-04-29T14:51:39.842Z,11.63
2023-04-29T14:54:12.746Z,9.90
2023-04-29T14:56:49.068Z,9.80
2023-04-29T14:59:17.815Z,21.92
2023-04-29T15:01:46.821Z,13.20
2023-04-29T15:04:25.872Z,11.25
2023-04-29T15:07:16.164Z,9.32
2023-04-29T15:09:47.809Z,10.05
2023-04-29T15:12:21.332Z,10.02
2023-04-29T15:14:50.812Z,10.30
2023-04-29T15:17:21.025Z,14.75
2023-04-29T15:19:52.559Z,11.55
2023-04-29T15:22:21.317Z,9.73
2023-04-29T15:24:54.095Z,9.73
2023-04-29T15:27:22.972Z,10.13
2023-04-29T15:29:54.815Z,11.70
2023-04-29T15:32:31.763Z,10.50
2023-04-29T15:35:04.669Z,10.25
2023-04-29T15:37:41.151Z,11.35
2023-04-29T15:40:22.618Z,10.45
2023-04-29T15:42:56.068Z,12.40
2023-04-29T15:45:25.123Z,11.70
2023-04-29T15:48:04.123Z,12.32
2023-04-29T15:50:37.850Z,11.25
2023-04-29T15:53:17.821Z,10.95
2023-04-29T15:55:46.233Z,11.43
2023-04-29T15:58:15.236Z,11.63
2023-04-29T16:00:52.910Z,11.15
2023-04-29T16:03:23.410Z,11.40
2023-04-29T16:06:00.547Z,11.85
2023-04-29T16:08:41.535Z,11.52
2023-04-29T16:11:09.997Z,11.75
2023-04-29T16:13:39.263Z,12.95
2023-04-29T16:16:16.272Z,13.60
2023-04-29T16:18:48.205Z,12.80
2023-04-29T16:21:19.288Z,13.85
2023-04-29T16:23:49.596Z,13.65
2023-04-29T16:26:22.129Z,14.68
2023-04-29T16:28:56.466Z,13.38
2023-04-29T16:31:28.802Z,13.57
2023-04-29T16:34:04.482Z,13.35
2023-04-29T16:36:36.301Z,13.90
2023-04-29T16:39:10.646Z,15.18
2023-04-29T16:41:39.154Z,14.80
2023-04-29T16:44:08.107Z,15.30
2023-04-29T16:46:36.543Z,15.13
2023-04-29T16:49:07.115Z,14.68
2023-04-29T16:51:36.919Z,15.55
2023-04-29T16:54:05.696Z,15.55
2023-04-29T16:56:33.922Z,15.70
2023-04-29T16:59:03.821Z,15.60
2023-04-29T17:01:32.761Z,17.45
2023-04-29T17:04:01.729Z,18.02
2023-04-29T17:06:31.380Z,17.17
2023-04-29T17:09:00.266Z,16.40
2023-04-29T17:11:28.901Z,16.65
2023-04-29T17:13:59.056Z,17.60
2023-04-29T17:16:27.564Z,17.90
2023-04-29T17:18:59.008Z,18.45
2023-04-29T17:21:30.856Z,22.42
2023-04-29T17:23:59.733Z,25.33
2023-04-29T17:26:28.265Z,28.65
2023-04-29T17:28:57.282Z,28.67
2023-04-29T17:31:45.219Z,74.28
2023-04-29T17:34:19.011Z,44.13
2023-04-29T17:36:47.782Z,28.08
2023-04-29T17:39:18.929Z,111.68
2023-04-29T17:41:47.362Z,90.82
2023-04-29T17:44:16.369Z,25.70
2023-04-29T17:46:45.994Z,17.20
2023-04-29T17:49:16.096Z,15.85
2023-04-29T17:51:46.164Z,18.90
2023-04-29T17:54:18.364Z,20.88
2023-04-29T17:56:47.020Z,21.42
2023-04-29T17:59:16.888Z,20.75
2023-04-29T18:01:45.541Z,22.10
2023-04-29T18:04:15.104Z,22.75
2023-04-29T18:06:49.487Z,22.30
2023-04-29T18:09:18.582Z,21.95
2023-04-29T18:11:50.861Z,25.02
2023-04-29T18:14:19.835Z,24.88
2023-04-29T18:16:48.231Z,25.60
2023-04-29T18:19:17.581Z,26.33
2023-04-29T18:21:45.899Z,26.45
2023-04-29T18:24:14.525Z,29.50
2023-04-29T18:26:43.279Z,26.70
2023-04-29T18:29:14.153Z,29.50
2023-04-29T18:31:43.418Z,29.05
2023-04-29T18:34:13.679Z,26.98
2023-04-29T18:36:42.235Z,28.40
2023-04-29T18:39:11.262Z,29.92
2023-04-29T18:41:40.984Z,30.45
2023-04-29T18:44:09.943Z,32.85
2023-04-29T18:46:38.550Z,29.13
2023-04-29T18:49:11.512Z,28.23
2023-04-29T18:51:43.751Z,28.48
2023-04-29T18:54:18.262Z,28.55
2023-04-29T18:56:49.355Z,30.60
2023-04-29T18:59:21.372Z,31.38
2023-04-29T19:01:56.237Z,29.40
2023-04-29T19:04:25.341Z,31.00
2023-04-29T19:06:54.604Z,29.20
2023-04-29T19:09:23.487Z,30.17
2023-04-29T19:11:52.261Z,28.60
2023-04-29T19:14:21.226Z,30.33
2023-04-29T19:16:55.078Z,28.92
2023-04-29T19:19:23.970Z,28.83
2023-04-29T19:21:54.131Z,28.88
2023-04-29T19:24:23.406Z,30.00
2023-04-29T19:26:52.233Z,28.92
2023-04-29T19:29:25.658Z,28.08
2023-04-29T19:31:56.622Z,29.85
2023-04-29T19:34:26.086Z,28.15
2023-04-29T19:36:54.539Z,27.60
2023-04-29T19:39:23.933Z,28.27
2023-04-29T19:41:53.979Z,26.45
2023-04-29T19:44:23.247Z,25.15
2023-04-29T19:46:54.771Z,25.33
2023-04-29T19:49:42.144Z,24.88
2023-04-29T19:52:13.601Z,25.13
2023-04-29T19:54:44.577Z,24.63
2023-04-29T19:57:14.475Z,25.13
2023-04-29T19:59:43.248Z,26.30
2023-04-29T20:02:11.749Z,26.60
2023-04-29T20:04:42.247Z,25.65
2023-04-29T20:07:11.038Z,24.50
2023-04-29T20:09:40.951Z,23.35
2023-04-29T20:12:09.433Z,25.90
2023-04-29T20:14:39.873Z,24.00
2023-04-29T20:17:10.957Z,23.65
2023-04-29T20:19:40.750Z,22.70
2023-04-29T20:22:09.394Z,25.30
2023-04-29T20:24:41.409Z,24.27
2023-04-29T20:27:10.403Z,24.73
2023-04-29T20:29:41.925Z,24.92
2023-04-29T20:32:24.447Z,25.77
2023-04-29T20:34:54.786Z,26.25
2023-04-29T20:37:28.694Z,27.48
2023-04-29T20:39:58.774Z,23.85
2023-04-29T20:42:27.748Z,28.45
2023-04-29T20:44:56.986Z,26.80
2023-04-29T20:47:29.026Z,23.75
2023-04-29T20:49:58.496Z,25.00
2023-04-29T20:52:31.181Z,25.10
2023-04-29T20:55:05.202Z,22.90
2023-04-29T20:57:36.244Z,22.65
2023-04-29T21:00:06.200Z,22.88
2023-04-29T21:02:37.343Z,23.73
2023-04-29T21:05:15.558Z,23.48
2023-04-29T21:07:48.701Z,20.58
2023-04-29T21:10:24.992Z,20.60
2023-04-29T21:12:53.596Z,18.85
2023-04-29T21:15:24.607Z,18.52
2023-04-29T21:17:53.110Z,17.63
2023-04-29T21:20:26.065Z,16.45
2023-04-29T21:25:25.645Z,15.25
2023-04-29T21:27:54.284Z,16.00
2023-04-29T21:30:30.373Z,15.27
2023-04-29T21:32:59.273Z,14.38
2023-04-29T21:35:28.779Z,16.27
2023-04-29T21:37:57.741Z,14.88
2023-04-29T21:40:30.311Z,13.70
2023-04-29T21:43:00.694Z,15.40
2023-04-29T21:45:29.827Z,15.95
2023-04-29T21:48:24.025Z,14.18
2023-04-29T21:50:57.358Z,15.20
2023-04-29T21:53:25.865Z,15.05
2023-04-29T21:55:54.884Z,15.73
2023-04-29T21:58:24.062Z,15.48
2023-04-29T22:01:01.570Z,16.25
2023-04-29T22:03:30.773Z,16.15
2023-04-29T22:05:59.787Z,14.00
2023-04-29T22:08:28.426Z,14.30
2023-04-29T22:10:57.848Z,14.73
2023-04-29T22:13:26.235Z,14.45
2023-04-29T22:15:55.106Z,13.90
2023-04-29T22:18:23.814Z,13.57
2023-04-29T22:20:54.082Z,13.07
2023-04-29T22:23:23.023Z,13.30
2023-04-29T22:25:52.575Z,12.05
2023-04-29T22:28:22.019Z,13.82
2023-04-29T22:30:50.909Z,13.80
2023-04-29T22:33:20.540Z,13.55
2023-04-29T22:35:51.281Z,14.52
2023-04-29T22:38:20.914Z,13.45
2023-04-29T22:40:53.502Z,13.77
2023-04-29T22:43:23.037Z,13.35
2023-04-29T22:45:56.026Z,13.48
2023-04-29T22:48:27.653Z,13.48
2023-04-29T22:51:04.012Z,13.70
2023-04-29T22:53:32.428Z,12.93
2023-04-29T22:56:02.253Z,12.80
2023-04-29T22:58:31.079Z,12.82
2023-04-29T23:01:00.779Z,12.90
2023-04-29T23:03:31.043Z,11.38
2023-04-29T23:06:01.268Z,11.30
2023-04-29T23:08:31.619Z,13.40
2023-04-29T23:11:00.289Z,12.48
2023-04-29T23:13:28.697Z,12.95
2023-04-29T23:15:57.984Z,14.38
2023-04-29T23:18:26.510Z,12.55
2023-04-29T23:20:57.029Z,16.15
2023-04-29T23:23:25.634Z,14.40
2023-04-29T23:25:54.622Z,11.70
2023-04-29T23:28:27.612Z,13.95
2023-04-29T23:30:56.423Z,11.63
2023-04-29T23:33:24.753Z,11.35
2023-04-29T23:35:54.246Z,11.02
2023-04-29T23:38:22.623Z,11.85
2023-04-29T23:40:51.807Z,11.77
2023-04-29T23:43:21.730Z,11.90
2023-04-29T23:45:50.521Z,11.68
2023-04-29T23:48:18.821Z,14.30
2023-04-29T23:50:48.143Z,12.73
2023-04-29T23:53:17.492Z,12.52
2023-04-29T23:55:46.286Z,13.10
2023-04-29T23:58:14.571Z,13.35
